Time;durP1;ratioP1;P1;durP2;ratioP2;P2;SDS_P1;SDS_P2;PMS_P1;PMS_P2;Temp;Humidity;BMP_temperature;BMP_pressure;BME280_temperature;BME280_humidity;BME280_pressure;Samples;Min_cycle;Max_cycle;Signal;HPM_P1;HPM_P2
2023/04/11 00:02:07;;;;;;;28.77;5.05;;;9.40;99.90;;;;;;5033542;28;20037;-80
2023/04/11 00:04:33;;;;;;;26.65;6.15;;;9.50;99.90;;;;;;5026149;28;20443;-80
2023/04/11 00:06:59;;;;;;;30.55;5.10;;;9.40;99.90;;;;;;5033377;28;20572;-80
2023/04/11 00:09:25;;;;;;;16.10;3.13;;;9.30;99.90;;;;;;5033686;28;20053;-80
2023/04/11 00:11:51;;;;;;;11.98;3.28;;;9.20;99.90;;;;;;5033512;28;20034;-80
2023/04/11 00:14:17;;;;;;;15.00;3.15;;;9.20;99.90;;;;;;5032139;28;20042;-80
2023/04/11 00:16:43;;;;;;;12.00;1.90;;;9.20;99.90;;;;;;5033400;28;20500;-79
2023/04/11 00:19:09;;;;;;;19.67;2.58;;;9.10;99.90;;;;;;5033223;28;20079;-79
2023/04/11 00:21:38;;;;;;;11.77;1.88;;;9.00;99.90;;;;;;5033359;28;20038;-80
2023/04/11 00:24:08;;;;;;;7.45;1.45;;;9.00;99.90;;;;;;5033368;28;20052;-80
2023/04/11 00:26:33;;;;;;;8.88;2.63;;;8.90;99.90;;;;;;5026085;28;20057;-79
2023/04/11 00:28:59;;;;;;;14.70;2.88;;;8.90;99.90;;;;;;5032108;28;20061;-79
2023/04/11 00:31:25;;;;;;;12.98;2.72;;;8.90;99.90;;;;;;5024693;28;20052;-79
2023/04/11 00:33:50;;;;;;;9.32;1.52;;;8.90;99.90;;;;;;5033687;28;20393;-79
2023/04/11 00:36:16;;;;;;;7.40;1.52;;;8.90;99.90;;;;;;5035833;28;20089;-79
2023/04/11 00:38:43;;;;;;;9.43;2.45;;;8.80;99.90;;;;;;5037025;28;20128;-79
2023/04/11 00:41:09;;;;;;;6.10;1.02;;;8.80;99.90;;;;;;5037029;28;20045;-79
2023/04/11 00:43:35;;;;;;;8.02;1.55;;;8.80;99.90;;;;;;5037047;28;20047;-79
2023/04/11 00:46:03;;;;;;;7.50;1.60;;;8.80;99.90;;;;;;5033228;28;20091;-79
2023/04/11 00:48:29;;;;;;;5.70;1.60;;;8.70;99.90;;;;;;5036770;28;20042;-79
2023/04/11 00:50:59;;;;;;;10.70;1.45;;;8.70;99.90;;;;;;5036945;28;20042;-79
2023/04/11 00:53:25;;;;;;;11.80;1.67;;;8.70;99.90;;;;;;5036917;28;20124;-79
2023/04/11 00:55:51;;;;;;;8.32;1.50;;;8.70;99.90;;;;;;5036669;28;20124;-79
2023/04/11 00:58:17;;;;;;;12.45;1.83;;;8.60;99.90;;;;;;5036724;28;20481;-79
2023/04/11 01:00:43;;;;;;;6.95;1.30;;;8.60;99.90;;;;;;5030420;28;20095;-79
2023/04/11 01:03:09;;;;;;;8.57;1.60;;;8.60;99.90;;;;;;5036659;28;20041;-79
2023/04/11 01:05:35;;;;;;;9.10;1.60;;;8.60;99.90;;;;;;5036417;28;20404;-79
2023/04/11 01:08:02;;;;;;;12.88;2.03;;;8.60;99.90;;;;;;5036588;28;20049;-79
2023/04/11 01:10:29;;;;;;;7.60;1.88;;;8.50;99.90;;;;;;5028192;28;20180;-79
2023/04/11 01:12:58;;;;;;;7.55;1.80;;;8.50;99.90;;;;;;5035142;28;20393;-79
2023/04/11 01:15:24;;;;;;;7.60;1.58;;;8.50;99.90;;;;;;5036629;28;20053;-79
2023/04/11 01:17:54;;;;;;;10.55;1.98;;;8.50;99.90;;;;;;5036377;28;20061;-79
2023/04/11 01:20:20;;;;;;;9.52;1.63;;;8.40;99.90;;;;;;5026809;28;20053;-78
2023/04/11 01:22:48;;;;;;;8.55;1.52;;;8.40;99.90;;;;;;5035269;28;20443;-79
2023/04/11 01:25:14;;;;;;;6.88;1.13;;;8.40;99.90;;;;;;5035224;28;20531;-79
2023/04/11 01:27:41;;;;;;;8.43;1.42;;;8.30;99.90;;;;;;5036180;28;20048;-79
2023/04/11 01:30:07;;;;;;;5.38;1.17;;;8.30;99.90;;;;;;5036175;28;20049;-79
2023/04/11 01:32:33;;;;;;;7.30;1.65;;;8.30;99.90;;;;;;5012233;28;20049;-79
2023/04/11 01:35:02;;;;;;;9.23;1.55;;;8.30;99.90;;;;;;5034729;28;20055;-79
2023/04/11 01:37:27;;;;;;;9.68;1.63;;;8.20;99.90;;;;;;5036131;28;20121;-79
2023/04/11 01:39:53;;;;;;;11.68;2.05;;;8.20;99.90;;;;;;5035942;28;20179;-79
2023/04/11 01:42:21;;;;;;;12.15;2.03;;;8.20;99.90;;;;;;5035945;28;20044;-78
2023/04/11 01:44:49;;;;;;;6.55;1.88;;;8.20;99.90;;;;;;5029200;28;20037;-79
2023/04/11 01:47:15;;;;;;;8.85;1.23;;;8.20;99.90;;;;;;5034730;28;20057;-79
2023/04/11 01:49:41;;;;;;;7.00;1.70;;;8.20;99.90;;;;;;5029304;28;20048;-79
2023/04/11 01:52:07;;;;;;;9.95;1.88;;;8.20;99.90;;;;;;5034297;28;20092;-79
2023/04/11 01:54:37;;;;;;;9.48;1.38;;;8.20;99.90;;;;;;5028312;28;20128;-79
2023/04/11 01:57:03;;;;;;;7.00;1.73;;;8.10;99.90;;;;;;5034579;28;20059;-79
2023/04/11 01:59:28;;;;;;;8.18;1.35;;;8.20;99.90;;;;;;5035649;28;20104;-79
2023/04/11 02:01:54;;;;;;;7.68;1.20;;;8.10;99.90;;;;;;5035469;28;20511;-79
2023/04/11 02:04:20;;;;;;;8.40;1.10;;;8.10;99.90;;;;;;5026150;28;20053;-79
2023/04/11 02:06:45;;;;;;;12.18;1.48;;;8.00;99.90;;;;;;5035569;28;20040;-79
2023/04/11 02:09:11;;;;;;;7.95;1.10;;;8.00;99.90;;;;;;5033003;28;20053;-79
2023/04/11 02:11:36;;;;;;;6.57;1.10;;;8.00;99.90;;;;;;5028158;28;20041;-79
2023/04/11 02:14:02;;;;;;;8.05;1.50;;;8.00;99.90;;;;;;5035227;28;20050;-79
2023/04/11 02:16:28;;;;;;;6.45;1.35;;;8.00;99.90;;;;;;5035138;28;20095;-79
2023/04/11 02:18:55;;;;;;;8.85;1.85;;;8.00;99.90;;;;;;5035281;28;20069;-79
2023/04/11 02:21:21;;;;;;;10.35;1.10;;;8.00;99.90;;;;;;5035255;28;20049;-79
2023/04/11 02:23:46;;;;;;;4.88;1.20;;;8.00;99.90;;;;;;5035145;28;20083;-79
2023/04/11 02:26:12;;;;;;;10.75;1.85;;;8.00;99.90;;;;;;5035151;28;20041;-79
2023/04/11 02:28:37;;;;;;;8.82;1.55;;;8.00;99.90;;;;;;5035112;28;20095;-79
2023/04/11 02:31:03;;;;;;;7.30;1.83;;;8.00;99.90;;;;;;5035054;28;20041;-79
2023/04/11 02:33:29;;;;;;;11.93;1.70;;;8.00;99.90;;;;;;5035007;28;20120;-79
2023/04/11 02:35:55;;;;;;;11.88;2.13;;;8.00;99.90;;;;;;5034802;28;20048;-79
2023/04/11 02:38:20;;;;;;;15.00;1.92;;;8.10;99.90;;;;;;5034792;28;20048;-79
2023/04/11 02:40:46;;;;;;;11.52;2.60;;;8.00;99.90;;;;;;5028857;28;20487;-79
2023/04/11 02:43:12;;;;;;;10.32;2.28;;;8.10;99.90;;;;;;5033632;28;20045;-79
2023/04/11 02:45:38;;;;;;;7.35;1.80;;;8.00;99.90;;;;;;5027952;28;20056;-79
2023/04/11 02:48:04;;;;;;;8.18;1.52;;;8.00;99.90;;;;;;5034971;28;20126;-79
2023/04/11 02:50:30;;;;;;;10.00;2.75;;;8.00;99.90;;;;;;5026904;28;20056;-79
2023/04/11 02:52:56;;;;;;;8.23;1.55;;;8.10;99.90;;;;;;5034353;28;20452;-79
2023/04/11 02:55:22;;;;;;;9.35;2.03;;;8.10;99.90;;;;;;5016612;28;20060;-79
2023/04/11 02:57:49;;;;;;;13.70;2.80;;;8.10;99.90;;;;;;5017262;28;20041;-79
2023/04/11 03:00:15;;;;;;;11.20;2.00;;;8.10;99.90;;;;;;5034494;28;20057;-79
2023/04/11 03:02:42;;;;;;;15.98;3.45;;;8.00;99.90;;;;;;5034313;28;20533;-79
2023/04/11 03:05:08;;;;;;;14.35;2.35;;;8.00;99.90;;;;;;5034421;28;20064;-79
2023/04/11 03:07:37;;;;;;;12.68;2.22;;;8.00;99.90;;;;;;5016621;28;20073;-79
2023/04/11 03:10:03;;;;;;;11.23;2.72;;;8.00;99.90;;;;;;5034360;28;20053;-79
2023/04/11 03:12:28;;;;;;;12.73;2.20;;;8.00;99.90;;;;;;5034346;28;20033;-79
2023/04/11 03:14:54;;;;;;;15.00;2.75;;;8.00;99.90;;;;;;5016383;28;20477;-79
2023/04/11 03:17:20;;;;;;;13.65;2.22;;;8.00;99.90;;;;;;5034284;28;20064;-79
2023/04/11 03:19:45;;;;;;;14.05;2.58;;;8.00;99.90;;;;;;5034151;28;20057;-79
2023/04/11 03:22:11;;;;;;;13.70;3.22;;;8.00;99.90;;;;;;5016119;28;20041;-79
2023/04/11 03:24:38;;;;;;;16.35;2.53;;;8.10;99.90;;;;;;5016422;28;20073;-79
2023/04/11 03:27:04;;;;;;;13.27;2.72;;;8.00;99.90;;;;;;5034053;28;20042;-79
2023/04/11 03:29:31;;;;;;;13.80;2.70;;;8.10;99.90;;;;;;5033888;28;20053;-79
2023/04/11 03:31:57;;;;;;;13.15;2.65;;;8.00;99.90;;;;;;5034016;28;20052;-79
2023/04/11 03:34:24;;;;;;;13.07;3.00;;;8.10;99.90;;;;;;5033894;28;20124;-79
2023/04/11 03:36:50;;;;;;;16.73;3.35;;;8.10;99.90;;;;;;5033802;28;20057;-78
2023/04/11 03:39:20;;;;;;;16.20;3.25;;;8.10;99.90;;;;;;5016001;28;20445;-80
2023/04/11 03:41:46;;;;;;;17.30;2.58;;;8.10;99.90;;;;;;5033757;28;20049;-79
2023/04/11 03:44:12;;;;;;;12.25;2.70;;;8.00;99.90;;;;;;5016251;28;20535;-79
2023/04/11 03:46:38;;;;;;;10.20;2.72;;;8.10;99.90;;;;;;5016099;28;20041;-79
2023/04/11 03:49:03;;;;;;;16.33;3.35;;;8.10;99.90;;;;;;5016157;28;20133;-79
2023/04/11 03:51:30;;;;;;;10.30;2.65;;;8.10;99.90;;;;;;5033536;28;20057;-79
2023/04/11 03:54:02;;;;;;;17.27;2.85;;;8.20;99.90;;;;;;5033646;28;20103;-79
2023/04/11 03:56:28;;;;;;;13.23;2.57;;;8.10;99.90;;;;;;5016012;28;20049;-79
2023/04/11 03:58:53;;;;;;;16.25;2.83;;;8.10;99.90;;;;;;5033669;28;20088;-79
2023/04/11 04:01:19;;;;;;;14.18;2.83;;;8.10;99.90;;;;;;5033594;28;20112;-79
2023/04/11 04:03:45;;;;;;;11.95;3.47;;;8.10;99.90;;;;;;5016126;28;20507;-79
2023/04/11 04:06:10;;;;;;;19.33;2.80;;;8.10;99.90;;;;;;5015738;28;20065;-79
2023/04/11 04:08:36;;;;;;;11.02;3.17;;;8.10;99.90;;;;;;5034767;28;20079;-80
2023/04/11 04:11:01;;;;;;;10.77;2.95;;;8.10;99.90;;;;;;5037632;28;20362;-79
2023/04/11 04:13:27;;;;;;;11.55;2.90;;;8.00;99.90;;;;;;5019784;28;20049;-79
2023/04/11 04:15:53;;;;;;;10.20;2.60;;;8.00;99.90;;;;;;5037497;28;20046;-79
2023/04/11 04:18:18;;;;;;;14.85;3.90;;;8.00;99.90;;;;;;5019559;28;20132;-79
2023/04/11 04:20:45;;;;;;;12.73;2.97;;;8.00;99.90;;;;;;5037494;28;20477;-79
2023/04/11 04:23:12;;;;;;;19.40;4.93;;;8.00;99.90;;;;;;5037496;28;20140;-80
2023/04/11 04:25:40;;;;;;;10.75;2.85;;;8.00;99.90;;;;;;5037242;28;20103;-80
2023/04/11 04:28:06;;;;;;;11.90;4.20;;;8.00;99.90;;;;;;5019787;28;20068;-79
2023/04/11 04:30:32;;;;;;;16.98;4.07;;;8.00;99.90;;;;;;5037348;28;20054;-79
2023/04/11 04:32:58;;;;;;;18.05;3.33;;;8.00;99.90;;;;;;5037180;28;20091;-79
2023/04/11 04:35:25;;;;;;;12.30;3.83;;;8.00;99.90;;;;;;5037194;28;20041;-79
2023/04/11 04:37:50;;;;;;;13.95;3.20;;;8.00;99.90;;;;;;5036781;28;20469;-79
2023/04/11 04:40:19;;;;;;;16.40;3.22;;;8.00;99.90;;;;;;5019264;28;20155;-79
2023/04/11 04:42:48;;;;;;;12.75;2.92;;;8.00;99.90;;;;;;5037083;28;20106;-79
2023/04/11 04:45:14;;;;;;;15.48;3.53;;;7.90;99.90;;;;;;5037047;28;20485;-79
2023/04/11 04:47:41;;;;;;;17.40;4.43;;;7.90;99.90;;;;;;5036924;28;20084;-79
2023/04/11 04:50:07;;;;;;;16.20;3.40;;;8.00;99.90;;;;;;5036643;28;20049;-79
2023/04/11 04:52:35;;;;;;;16.10;3.92;;;8.00;99.90;;;;;;5030301;28;20131;-79
2023/04/11 04:55:01;;;;;;;14.15;4.22;;;7.80;99.90;;;;;;5035986;28;20045;-79
2023/04/11 04:57:28;;;;;;;13.63;3.58;;;7.90;99.90;;;;;;5036517;28;20040;-79
2023/04/11 04:59:55;;;;;;;21.38;4.10;;;7.80;99.90;;;;;;5031705;28;20049;-79
2023/04/11 05:02:20;;;;;;;16.38;3.85;;;7.80;99.90;;;;;;5035127;28;20052;-79
2023/04/11 05:04:49;;;;;;;17.05;3.72;;;7.80;99.90;;;;;;5036587;28;20038;-79
2023/04/11 05:07:16;;;;;;;20.90;4.05;;;7.80;99.90;;;;;;5036319;28;20556;-79
2023/04/11 05:09:42;;;;;;;16.20;3.35;;;7.80;99.90;;;;;;5036288;28;20054;-78
2023/04/11 05:12:08;;;;;;;16.83;3.13;;;7.80;99.90;;;;;;5036210;28;20092;-78
2023/04/11 05:14:34;;;;;;;12.15;3.03;;;7.70;99.90;;;;;;5035977;28;20091;-78
2023/04/11 05:16:59;;;;;;;10.70;2.85;;;7.60;99.90;;;;;;5035891;28;20037;-79
2023/04/11 05:19:25;;;;;;;7.38;1.90;;;7.60;99.90;;;;;;5026569;28;20466;-79
2023/04/11 05:21:51;;;;;;;5.57;1.95;;;7.60;99.90;;;;;;5036285;28;20132;-79
2023/04/11 05:24:16;;;;;;;8.25;2.15;;;7.50;99.90;;;;;;5036055;28;20047;-79
2023/04/11 05:26:42;;;;;;;6.20;2.20;;;7.40;99.90;;;;;;5036311;28;20141;-79
2023/04/11 05:29:09;;;;;;;11.50;3.72;;;7.50;99.90;;;;;;5035887;28;20053;-79
2023/04/11 05:31:36;;;;;;;17.10;2.40;;;7.50;99.90;;;;;;5036182;28;20049;-79
2023/04/11 05:34:02;;;;;;;10.80;1.90;;;7.50;99.90;;;;;;5031994;28;20416;-79
2023/04/11 05:36:28;;;;;;;11.18;2.17;;;7.60;99.90;;;;;;5036058;28;20476;-79
2023/04/11 05:38:53;;;;;;;8.38;1.75;;;7.50;99.90;;;;;;5035814;28;20164;-79
2023/04/11 05:41:19;;;;;;;4.40;0.98;;;7.50;99.90;;;;;;5035704;28;20499;-79
2023/04/11 05:43:45;;;;;;;11.10;2.10;;;7.40;99.90;;;;;;5035619;28;20041;-79
2023/04/11 05:46:11;;;;;;;9.27;1.70;;;7.40;99.90;;;;;;5035635;28;20056;-79
2023/04/11 05:48:37;;;;;;;9.00;1.83;;;7.30;99.90;;;;;;5035865;28;20064;-78
2023/04/11 05:51:06;;;;;;;9.10;1.63;;;7.30;99.90;;;;;;5032060;28;20037;-78
2023/04/11 05:53:32;;;;;;;7.28;1.23;;;7.30;99.90;;;;;;5035618;28;20504;-79
2023/04/11 05:55:57;;;;;;;5.43;1.10;;;7.30;99.90;;;;;;5035653;28;20120;-78
2023/04/11 05:58:23;;;;;;;5.82;0.95;;;7.20;99.90;;;;;;5026438;28;20400;-79
2023/04/11 06:00:49;;;;;;;11.57;1.00;;;7.20;99.90;;;;;;5034144;28;20045;-78
2023/04/11 06:03:15;;;;;;;4.50;0.85;;;7.20;99.90;;;;;;5035525;28;20103;-79
2023/04/11 06:05:41;;;;;;;9.25;1.05;;;7.10;99.90;;;;;;5035397;28;20136;-77
2023/04/11 06:08:07;;;;;;;6.20;0.55;;;7.10;99.90;;;;;;5035593;28;20132;-78
2023/04/11 06:10:34;;;;;;;12.23;0.80;;;7.10;99.90;;;;;;5035427;28;20065;-78
2023/04/11 06:13:00;;;;;;;14.93;1.15;;;7.00;99.90;;;;;;5031152;28;20049;-79
2023/04/11 06:15:29;;;;;;;9.52;1.23;;;6.90;99.90;;;;;;5035024;28;20049;-79
2023/04/11 06:17:55;;;;;;;14.38;1.85;;;7.00;99.90;;;;;;5035305;28;20112;-78
2023/04/11 06:20:22;;;;;;;9.05;1.60;;;6.90;99.90;;;;;;5035294;28;20072;-78
2023/04/11 06:22:50;;;;;;;7.28;1.08;;;6.80;99.90;;;;;;5035228;28;20033;-78
2023/04/11 06:25:20;;;;;;;18.88;2.97;;;6.80;99.90;;;;;;5034862;28;20049;-78
2023/04/11 06:27:46;;;;;;;18.02;1.40;;;6.80;99.90;;;;;;5035131;28;20046;-78
2023/04/11 06:30:13;;;;;;;9.75;1.40;;;6.90;99.90;;;;;;5034965;28;20056;-77
2023/04/11 06:32:38;;;;;;;6.57;1.10;;;6.90;99.90;;;;;;5027075;28;20432;-78
2023/04/11 06:35:05;;;;;;;5.28;1.58;;;6.90;99.90;;;;;;5033429;28;20054;-78
2023/04/11 06:37:31;;;;;;;9.43;1.42;;;7.00;99.90;;;;;;5034618;28;20493;-79
2023/04/11 06:39:59;;;;;;;9.63;1.60;;;7.00;99.90;;;;;;5030375;28;20049;-79
2023/04/11 06:42:24;;;;;;;8.50;1.73;;;7.00;99.90;;;;;;5034496;28;20392;-79
2023/04/11 06:44:50;;;;;;;15.05;2.13;;;7.10;99.90;;;;;;5023752;28;20516;-78
2023/04/11 06:47:16;;;;;;;14.40;2.85;;;7.20;99.90;;;;;;5005540;28;20474;-78
2023/04/11 06:49:41;;;;;;;12.90;2.83;;;7.20;99.90;;;;;;5014631;28;20049;-78
2023/04/11 06:52:11;;;;;;;15.02;4.03;;;7.30;99.90;;;;;;5014286;28;20524;-79
2023/04/11 06:54:38;;;;;;;18.33;4.53;;;7.30;99.90;;;;;;5014162;28;20497;-83
2023/04/11 06:57:03;;;;;;;12.60;4.20;;;7.40;99.90;;;;;;5014324;28;20041;-79
2023/04/11 06:59:29;;;;;;;11.30;3.20;;;7.50;99.90;;;;;;5014295;28;20132;-79
2023/04/11 07:01:56;;;;;;;20.20;4.18;;;7.50;99.90;;;;;;5014244;28;20539;-79
2023/04/11 07:04:22;;;;;;;15.18;3.75;;;7.60;99.90;;;;;;5014497;28;20054;-83
2023/04/11 07:06:47;;;;;;;20.33;3.75;;;7.70;99.90;;;;;;4996799;28;20034;-79
2023/04/11 07:09:13;;;;;;;15.55;3.53;;;7.80;99.90;;;;;;5014128;28;20072;-79
2023/04/11 07:11:39;;;;;;;12.10;3.22;;;7.80;99.90;;;;;;5014346;28;20042;-84
2023/04/11 07:14:05;;;;;;;18.00;3.90;;;7.90;99.90;;;;;;4996623;28;20393;-79
2023/04/11 07:16:31;;;;;;;15.38;3.50;;;8.00;99.90;;;;;;4996377;28;20484;-79
2023/04/11 07:18:57;;;;;;;21.85;5.03;;;8.00;99.90;;;;;;5035836;28;20077;-81
2023/04/11 07:21:23;;;;;;;22.90;4.22;;;8.10;99.90;;;;;;5024170;28;20412;-88
2023/04/11 07:23:49;;;;;;;18.23;4.55;;;8.20;99.90;;;;;;5034648;28;20515;-80
2023/04/11 07:26:15;;;;;;;14.50;4.03;;;8.30;99.90;;;;;;5053832;28;20033;-80
2023/04/11 07:28:43;;;;;;;13.10;3.97;;;8.40;99.90;;;;;;5053767;28;20048;-80
2023/04/11 07:31:12;;;;;;;16.17;3.00;;;8.50;99.90;;;;;;5035646;28;20049;-81
2023/04/11 07:33:41;;;;;;;19.23;3.35;;;8.60;99.90;;;;;;5035825;28;20051;-83
2023/04/11 07:36:07;;;;;;;21.75;4.75;;;8.70;99.90;;;;;;5035428;28;20051;-82
2023/04/11 07:38:33;;;;;;;17.67;4.03;;;8.80;99.90;;;;;;5053268;28;20081;-82
2023/04/11 07:41:01;;;;;;;18.65;4.30;;;8.90;99.90;;;;;;5035566;28;20068;-85
2023/04/11 07:43:28;;;;;;;21.50;4.07;;;9.10;99.90;;;;;;5053547;28;20055;-79
2023/04/11 07:45:55;;;;;;;20.88;3.67;;;9.30;99.90;;;;;;5053447;28;20052;-80
2023/04/11 07:48:22;;;;;;;15.98;3.10;;;9.30;99.90;;;;;;5030208;28;20045;-84
2023/04/11 07:50:48;;;;;;;17.08;3.17;;;9.50;99.90;;;;;;5012797;28;20129;-82
2023/04/11 07:53:14;;;;;;;17.52;3.53;;;9.60;99.90;;;;;;5033314;28;20140;-80
2023/04/11 07:55:40;;;;;;;17.15;3.58;;;9.70;99.90;;;;;;5033381;28;20053;-80
2023/04/11 07:58:06;;;;;;;15.48;3.28;;;9.90;99.90;;;;;;5033168;28;20091;-82
2023/04/11 08:00:32;;;;;;;13.60;3.42;;;10.00;99.90;;;;;;5014338;28;20049;-82
2023/04/11 08:03:08;;;;;;;12.77;3.13;;;10.10;99.90;;;;;;5031995;28;20030;-83
2023/04/11 08:05:35;;;;;;;19.73;3.25;;;10.20;99.90;;;;;;5014210;28;20058;-81
2023/04/11 08:08:02;;;;;;;20.73;3.63;;;10.10;99.90;;;;;;5031818;28;20038;-81
2023/04/11 08:10:27;;;;;;;18.35;3.30;;;10.10;99.90;;;;;;5031747;28;20045;-81
2023/04/11 08:12:54;;;;;;;16.33;3.28;;;10.00;99.90;;;;;;5031536;28;20157;-81
2023/04/11 08:15:20;;;;;;;20.30;3.75;;;9.90;99.90;;;;;;5031521;28;20539;-81
2023/04/11 08:17:48;;;;;;;13.63;3.20;;;9.90;99.90;;;;;;5031647;28;20116;-81
2023/04/11 08:20:15;;;;;;;18.45;3.35;;;9.80;99.90;;;;;;5013869;28;20474;-81
2023/04/11 08:22:43;;;;;;;14.70;3.55;;;9.90;99.90;;;;;;5013925;28;20041;-82
2023/04/11 08:25:10;;;;;;;15.85;4.65;;;10.00;99.90;;;;;;5013835;28;20042;-81
2023/04/11 08:27:39;;;;;;;19.23;3.58;;;9.80;99.90;;;;;;5013862;28;20037;-82
2023/04/11 08:30:07;;;;;;;12.18;2.95;;;9.70;99.90;;;;;;5011555;28;20052;-81
2023/04/11 08:32:33;;;;;;;18.70;3.50;;;9.60;99.90;;;;;;5013816;28;20046;-81
2023/04/11 08:34:59;;;;;;;14.80;3.65;;;9.50;99.90;;;;;;5013620;28;20099;-81
2023/04/11 08:37:26;;;;;;;14.50;3.20;;;9.70;99.90;;;;;;5031527;28;20046;-81
2023/04/11 08:39:52;;;;;;;14.63;2.63;;;9.80;99.90;;;;;;5031543;28;20109;-81
2023/04/11 08:42:44;;;;;;;11.88;3.00;;;9.80;99.90;;;;;;5014003;28;20187;-81
2023/04/11 08:45:10;;;;;;;12.50;2.70;;;9.90;99.90;;;;;;5011523;28;20076;-81
2023/04/11 08:47:36;;;;;;;22.30;4.47;;;9.70;99.90;;;;;;5031567;28;20464;-81
2023/04/11 08:50:03;;;;;;;12.25;3.08;;;9.60;99.90;;;;;;5013520;28;20049;-81
2023/04/11 08:52:30;;;;;;;14.13;3.63;;;9.50;99.90;;;;;;5013992;28;20049;-79
2023/04/11 08:54:55;;;;;;;14.35;3.78;;;9.50;99.90;;;;;;5034100;28;20558;-79
2023/04/11 08:57:32;;;;;;;14.48;2.75;;;9.50;99.90;;;;;;5036583;28;20053;-80
2023/04/11 09:00:36;;;;;;;15.88;3.58;;;9.50;99.90;;;;;;5036334;28;20100;-80
2023/04/11 09:03:02;;;;;;;9.80;2.75;;;9.50;99.90;;;;;;5033248;28;20053;-79
2023/04/11 09:05:46;;;;;;;15.00;2.65;;;9.70;99.90;;;;;;5036238;28;20076;-78
2023/04/11 09:08:14;;;;;;;17.15;3.38;;;10.00;99.90;;;;;;5036497;28;20041;-78
2023/04/11 09:10:44;;;;;;;14.95;3.17;;;9.90;99.90;;;;;;5036321;28;20045;-80
2023/04/11 09:13:28;;;;;;;13.90;3.38;;;9.90;99.90;;;;;;5036248;28;20073;-79
2023/04/11 09:16:08;;;;;;;10.07;3.05;;;9.70;99.90;;;;;;5018308;28;20061;-78
2023/04/11 09:18:45;;;;;;;11.02;2.42;;;9.50;99.90;;;;;;5035906;28;20049;-79
2023/04/11 09:21:12;;;;;;;16.67;4.00;;;9.40;99.90;;;;;;5018586;28;20130;-80
2023/04/11 09:23:39;;;;;;;13.90;2.60;;;9.40;99.90;;;;;;5036171;28;20088;-80
2023/04/11 09:26:09;;;;;;;17.38;2.63;;;9.40;99.90;;;;;;5018112;28;20103;-81
2023/04/11 09:28:43;;;;;;;13.77;3.15;;;9.60;99.90;;;;;;5035926;28;20050;-81
2023/04/11 09:31:11;;;;;;;12.50;2.08;;;9.90;99.90;;;;;;5035960;28;20120;-79
2023/04/11 09:33:37;;;;;;;13.00;2.28;;;9.90;99.90;;;;;;5036018;28;20042;-80
2023/04/11 09:36:18;;;;;;;15.93;3.38;;;9.70;99.90;;;;;;5035700;28;20061;-80
2023/04/11 09:38:44;;;;;;;19.08;3.65;;;9.50;99.90;;;;;;5018219;28;20053;-80
2023/04/11 09:41:10;;;;;;;17.85;2.55;;;9.50;99.90;;;;;;5018093;28;20124;-80
2023/04/11 09:43:54;;;;;;;14.38;3.35;;;9.70;99.90;;;;;;5018078;28;20081;-80
2023/04/11 09:46:20;;;;;;;11.40;2.97;;;10.00;99.90;;;;;;5035484;28;20037;-79
2023/04/11 09:48:47;;;;;;;13.45;2.33;;;10.20;99.90;;;;;;5035559;28;20460;-83
2023/04/11 09:51:14;;;;;;;20.83;2.80;;;10.30;99.90;;;;;;5035511;28;20061;-80
2023/04/11 09:53:40;;;;;;;12.35;2.55;;;10.40;99.90;;;;;;5035498;28;20509;-81
2023/04/11 09:56:08;;;;;;;11.98;2.05;;;10.60;99.90;;;;;;5034356;28;20103;-81
2023/04/11 09:58:36;;;;;;;11.15;2.40;;;10.70;99.90;;;;;;5035660;28;20045;-81
2023/04/11 10:01:03;;;;;;;10.63;2.50;;;10.50;99.90;;;;;;5034828;28;20128;-81
2023/04/11 10:03:33;;;;;;;9.88;2.40;;;10.40;99.90;;;;;;5017554;28;20077;-82
2023/04/11 10:06:02;;;;;;;12.35;3.10;;;10.20;99.90;;;;;;5034333;28;20045;-81
2023/04/11 10:08:34;;;;;;;9.45;2.95;;;10.30;99.90;;;;;;5017490;28;20046;-81
2023/04/11 10:11:06;;;;;;;15.43;3.00;;;10.40;99.90;;;;;;5035498;28;20050;-81
2023/04/11 10:13:38;;;;;;;13.63;2.65;;;10.70;99.90;;;;;;5035434;28;20057;-81
2023/04/11 10:16:08;;;;;;;9.90;2.47;;;10.90;99.90;;;;;;5035152;28;20041;-81
2023/04/11 10:18:37;;;;;;;14.05;2.20;;;10.90;99.90;;;;;;5035147;28;20444;-81
2023/04/11 10:21:04;;;;;;;15.52;2.97;;;11.00;99.90;;;;;;5035022;28;20045;-81
2023/04/11 10:24:12;;;;;;;12.70;2.58;;;11.30;99.90;;;;;;5017511;28;20045;-81
2023/04/11 10:26:49;;;;;;;13.07;2.88;;;11.30;99.90;;;;;;5034907;28;20045;-82
2023/04/11 10:29:33;;;;;;;14.05;3.53;;;11.20;99.90;;;;;;5034787;28;20497;-81
2023/04/11 10:32:14;;;;;;;14.05;3.53;;;11.10;99.90;;;;;;5034773;28;20388;-81
2023/04/11 10:35:00;;;;;;;13.65;2.22;;;11.10;99.90;;;;;;5017170;28;20180;-82
2023/04/11 10:37:33;;;;;;;12.68;2.35;;;10.90;99.90;;;;;;5034612;28;20509;-82
2023/04/11 10:40:31;;;;;;;13.52;2.92;;;11.00;99.90;;;;;;5017085;28;20393;-82
2023/04/11 10:42:51;;;;;;;14.70;2.67;;;10.90;99.90;;;;;;5031530;28;20481;-81
2023/04/11 10:45:22;;;;;;;14.18;2.45;;;10.70;99.90;;;;;;5034549;28;20053;-82
2023/04/11 10:47:50;;;;;;;15.85;2.53;;;10.60;99.90;;;;;;5017396;28;20057;-82
2023/04/11 10:50:22;;;;;;;12.73;2.83;;;10.50;99.90;;;;;;5034697;28;20076;-81
2023/04/11 10:52:48;;;;;;;9.20;1.73;;;10.40;99.90;;;;;;5034225;28;20107;-81
2023/04/11 10:55:17;;;;;;;10.05;1.95;;;10.20;99.90;;;;;;5034568;28;20041;-82
2023/04/11 10:58:08;;;;;;;7.95;1.77;;;10.10;99.90;;;;;;5016538;28;20049;-81
2023/04/11 11:00:48;;;;;;;4.45;1.10;;;9.90;99.90;;;;;;5016731;28;20084;-81
2023/04/11 11:03:21;;;;;;;3.92;1.00;;;9.60;99.90;;;;;;5016767;28;20052;-81
2023/04/11 11:05:57;;;;;;;12.70;2.22;;;9.60;99.90;;;;;;5016700;28;20065;-81
2023/04/11 11:08:32;;;;;;;14.23;2.80;;;9.90;99.90;;;;;;5034223;28;20049;-82
2023/04/11 11:11:02;;;;;;;15.52;3.42;;;10.20;99.90;;;;;;5033961;28;20481;-82
2023/04/11 11:13:42;;;;;;;15.85;3.22;;;10.30;99.90;;;;;;5034296;28;20041;-82
2023/04/11 11:16:09;;;;;;;13.60;2.72;;;10.40;99.90;;;;;;5033865;28;20057;-82
2023/04/11 11:18:36;;;;;;;8.88;1.98;;;10.30;99.90;;;;;;5016182;28;20072;-82
2023/04/11 11:21:02;;;;;;;7.68;1.80;;;10.10;99.90;;;;;;5033892;28;20049;-82
2023/04/11 11:23:27;;;;;;;6.68;1.75;;;9.90;99.90;;;;;;5034001;28;20048;-82
2023/04/11 11:25:54;;;;;;;12.13;2.88;;;9.90;99.90;;;;;;5034133;28;20040;-81
2023/04/11 11:28:20;;;;;;;14.00;2.83;;;10.00;99.90;;;;;;5016123;28;20051;-81
2023/04/11 11:30:50;;;;;;;12.85;2.90;;;10.40;99.90;;;;;;5033741;28;20133;-81
2023/04/11 11:33:18;;;;;;;16.48;2.72;;;10.60;99.90;;;;;;5033606;28;20124;-82
2023/04/11 11:35:52;;;;;;;16.85;3.67;;;10.80;99.90;;;;;;5033797;28;20052;-83
2023/04/11 11:38:19;;;;;;;14.88;3.53;;;11.00;99.90;;;;;;5016131;28;20045;-82
2023/04/11 11:40:47;;;;;;;13.98;3.10;;;11.00;99.90;;;;;;5033843;28;20042;-80
2023/04/11 11:43:12;;;;;;;16.65;3.42;;;11.20;99.90;;;;;;5015878;28;20053;-81
2023/04/11 11:45:38;;;;;;;11.13;2.60;;;11.50;99.90;;;;;;5033678;28;20100;-82
2023/04/11 11:48:04;;;;;;;15.05;3.03;;;11.50;99.90;;;;;;5033742;28;20045;-80
2023/04/11 11:50:31;;;;;;;15.68;2.58;;;11.30;99.90;;;;;;5033674;28;20050;-84
2023/04/11 11:53:14;;;;;;;12.75;2.50;;;11.20;99.90;;;;;;5033307;28;20397;-82
2023/04/11 11:55:40;;;;;;;;;;;10.90;99.90;;;;;;5033327;28;20504;-87
2023/04/11 11:58:06;;;;;;;10.13;2.58;;;10.90;99.90;;;;;;5033031;28;19943;-87
2023/04/11 12:00:38;;;;;;;17.63;2.80;;;10.90;99.90;;;;;;5019556;28;20045;-87
2023/04/11 12:03:05;;;;;;;11.27;2.80;;;10.80;99.90;;;;;;5019750;28;20052;-88
2023/04/11 12:05:33;;;;;;;8.68;3.30;;;10.80;99.90;;;;;;5016807;28;20053;-86
2023/04/11 12:08:01;;;;;;;13.73;2.38;;;11.00;99.90;;;;;;5032825;28;20409;-87
2023/04/11 12:10:40;;;;;;;7.72;1.30;;;10.90;99.90;;;;;;5019900;28;20042;-87
2023/04/11 12:13:13;;;;;;;6.45;1.40;;;10.80;99.90;;;;;;5016454;28;20049;-83
2023/04/11 12:15:40;;;;;;;11.30;1.60;;;10.90;99.90;;;;;;5013335;28;20056;-84
2023/04/11 12:18:06;;;;;;;15.35;2.67;;;10.90;99.90;;;;;;5015721;28;20046;-86
2023/04/11 12:20:32;;;;;;;13.52;2.75;;;11.00;99.90;;;;;;5033470;28;20049;-83
2023/04/11 12:22:57;;;;;;;11.98;2.80;;;10.90;99.90;;;;;;5033299;28;20040;-83
2023/04/11 12:25:26;;;;;;;18.15;3.13;;;10.90;99.90;;;;;;5033327;28;20550;-85
2023/04/11 12:27:52;;;;;;;8.45;1.98;;;10.70;99.90;;;;;;5033209;28;20448;-85
2023/04/11 12:30:18;;;;;;;10.02;2.28;;;10.50;99.90;;;;;;5035585;28;20045;-84
2023/04/11 12:32:44;;;;;;;12.43;3.25;;;10.60;99.90;;;;;;5020034;28;20049;-82
2023/04/11 12:35:10;;;;;;;13.90;2.80;;;10.50;99.90;;;;;;5037217;28;20046;-83
2023/04/11 12:37:36;;;;;;;8.02;2.17;;;10.80;99.90;;;;;;5019264;28;20394;-84
2023/04/11 12:40:14;;;;;;;17.23;3.78;;;11.00;99.90;;;;;;5019381;28;20053;-83
2023/04/11 12:42:42;;;;;;;21.60;2.70;;;11.20;99.90;;;;;;5037026;28;20473;-84
2023/04/11 12:45:09;;;;;;;17.55;3.08;;;11.10;99.90;;;;;;5036872;28;20444;-84
2023/04/11 12:47:35;;;;;;;13.00;2.40;;;11.00;99.90;;;;;;5019398;28;20045;-83
2023/04/11 12:50:02;;;;;;;16.80;2.50;;;10.90;99.90;;;;;;5037037;28;20048;-82
2023/04/11 12:52:28;;;;;;;16.50;3.17;;;10.90;99.90;;;;;;5018920;28;20455;-83